sensor_id;sensor_type;location;lat;lon;timestamp;P1;durP1;ratioP1;P2;durP2;ratioP2
33347;SDS011;19707;51.158;17.124;2023-03-14T00:00:52;38.10;;;20.70;;
33347;SDS011;19707;51.158;17.124;2023-03-14T00:03:56;26.10;;;14.00;;
33347;SDS011;19707;51.158;17.124;2023-03-14T00:06:58;31.60;;;18.50;;
33347;SDS011;19707;51.158;17.124;2023-03-14T00:10:06;33.80;;;17.10;;
33347;SDS011;19707;51.158;17.124;2023-03-14T00:13:11;28.70;;;16.10;;
33347;SDS011;19707;51.158;17.124;2023-03-14T00:16:15;27.50;;;14.50;;
33347;SDS011;19707;51.158;17.124;2023-03-14T00:19:18;21.70;;;13.40;;
33347;SDS011;19707;51.158;17.124;2023-03-14T00:22:21;26.70;;;15.80;;
33347;SDS011;19707;51.158;17.124;2023-03-14T00:25:24;35.80;;;18.20;;
33347;SDS011;19707;51.158;17.124;2023-03-14T00:28:27;32.20;;;18.10;;
33347;SDS011;19707;51.158;17.124;2023-03-14T00:31:30;28.30;;;16.40;;
33347;SDS011;19707;51.158;17.124;2023-03-14T00:34:34;24.90;;;13.70;;
33347;SDS011;19707;51.158;17.124;2023-03-14T00:37:37;19.10;;;10.80;;
33347;SDS011;19707;51.158;17.124;2023-03-14T00:40:40;20.00;;;9.80;;
33347;SDS011;19707;51.158;17.124;2023-03-14T00:43:43;23.10;;;10.80;;
33347;SDS011;19707;51.158;17.124;2023-03-14T00:46:46;21.20;;;10.90;;
33347;SDS011;19707;51.158;17.124;2023-03-14T00:49:49;21.20;;;10.70;;
33347;SDS011;19707;51.158;17.124;2023-03-14T00:52:52;16.70;;;10.00;;
33347;SDS011;19707;51.158;17.124;2023-03-14T00:55:55;23.70;;;10.50;;
33347;SDS011;19707;51.158;17.124;2023-03-14T00:58:57;24.80;;;11.20;;
33347;SDS011;19707;51.158;17.124;2023-03-14T01:02:00;21.40;;;10.90;;
33347;SDS011;19707;51.158;17.124;2023-03-14T01:08:09;18.60;;;9.70;;
33347;SDS011;19707;51.158;17.124;2023-03-14T01:11:15;16.90;;;8.80;;
33347;SDS011;19707;51.158;17.124;2023-03-14T01:14:20;15.00;;;8.70;;
33347;SDS011;19707;51.158;17.124;2023-03-14T01:17:22;18.30;;;8.80;;
33347;SDS011;19707;51.158;17.124;2023-03-14T01:20:25;19.00;;;8.10;;
33347;SDS011;19707;51.158;17.124;2023-03-14T01:23:28;14.00;;;7.30;;
33347;SDS011;19707;51.158;17.124;2023-03-14T01:26:32;11.90;;;7.10;;
33347;SDS011;19707;51.158;17.124;2023-03-14T01:29:36;16.50;;;6.90;;
33347;SDS011;19707;51.158;17.124;2023-03-14T01:32:39;12.70;;;6.50;;
33347;SDS011;19707;51.158;17.124;2023-03-14T01:35:42;9.50;;;6.40;;
33347;SDS011;19707;51.158;17.124;2023-03-14T01:38:45;13.30;;;6.60;;
33347;SDS011;19707;51.158;17.124;2023-03-14T01:41:48;14.50;;;7.30;;
33347;SDS011;19707;51.158;17.124;2023-03-14T01:44:55;14.00;;;7.50;;
33347;SDS011;19707;51.158;17.124;2023-03-14T01:47:59;13.20;;;7.70;;
33347;SDS011;19707;51.158;17.124;2023-03-14T01:51:02;10.60;;;6.90;;
33347;SDS011;19707;51.158;17.124;2023-03-14T01:54:17;11.20;;;6.90;;
33347;SDS011;19707;51.158;17.124;2023-03-14T01:57:32;12.40;;;6.40;;
33347;SDS011;19707;51.158;17.124;2023-03-14T02:00:36;12.20;;;6.70;;
33347;SDS011;19707;51.158;17.124;2023-03-14T02:03:43;13.80;;;8.00;;
33347;SDS011;19707;51.158;17.124;2023-03-14T02:07:00;13.10;;;7.80;;
33347;SDS011;19707;51.158;17.124;2023-03-14T02:10:11;11.10;;;6.20;;
33347;SDS011;19707;51.158;17.124;2023-03-14T02:13:14;14.30;;;7.80;;
33347;SDS011;19707;51.158;17.124;2023-03-14T02:16:18;18.80;;;7.90;;
33347;SDS011;19707;51.158;17.124;2023-03-14T02:19:24;14.90;;;7.40;;
33347;SDS011;19707;51.158;17.124;2023-03-14T02:22:49;15.10;;;7.40;;
33347;SDS011;19707;51.158;17.124;2023-03-14T02:26:01;10.80;;;7.30;;
33347;SDS011;19707;51.158;17.124;2023-03-14T02:29:08;11.80;;;7.60;;
33347;SDS011;19707;51.158;17.124;2023-03-14T02:32:11;15.20;;;8.20;;
33347;SDS011;19707;51.158;17.124;2023-03-14T02:41:39;13.50;;;7.30;;
33347;SDS011;19707;51.158;17.124;2023-03-14T02:44:48;14.10;;;7.30;;
33347;SDS011;19707;51.158;17.124;2023-03-14T02:47:57;14.20;;;7.50;;
33347;SDS011;19707;51.158;17.124;2023-03-14T02:51:02;11.30;;;6.50;;
33347;SDS011;19707;51.158;17.124;2023-03-14T02:54:05;9.40;;;5.80;;
33347;SDS011;19707;51.158;17.124;2023-03-14T02:57:08;12.60;;;6.20;;
33347;SDS011;19707;51.158;17.124;2023-03-14T03:00:11;10.20;;;5.50;;
33347;SDS011;19707;51.158;17.124;2023-03-14T03:03:14;9.90;;;5.50;;
33347;SDS011;19707;51.158;17.124;2023-03-14T03:06:17;12.10;;;5.00;;
33347;SDS011;19707;51.158;17.124;2023-03-14T03:09:19;8.90;;;4.70;;
33347;SDS011;19707;51.158;17.124;2023-03-14T03:12:22;14.90;;;6.20;;
33347;SDS011;19707;51.158;17.124;2023-03-14T03:15:25;11.30;;;5.10;;
33347;SDS011;19707;51.158;17.124;2023-03-14T03:18:28;9.00;;;4.80;;
33347;SDS011;19707;51.158;17.124;2023-03-14T03:21:30;8.90;;;4.20;;
33347;SDS011;19707;51.158;17.124;2023-03-14T03:24:33;9.50;;;4.50;;
33347;SDS011;19707;51.158;17.124;2023-03-14T03:27:37;8.70;;;3.90;;
33347;SDS011;19707;51.158;17.124;2023-03-14T03:30:40;6.30;;;3.80;;
33347;SDS011;19707;51.158;17.124;2023-03-14T03:33:43;6.90;;;4.30;;
33347;SDS011;19707;51.158;17.124;2023-03-14T03:36:46;9.50;;;3.60;;
33347;SDS011;19707;51.158;17.124;2023-03-14T03:39:50;6.20;;;3.40;;
33347;SDS011;19707;51.158;17.124;2023-03-14T03:42:54;4.90;;;3.30;;
33347;SDS011;19707;51.158;17.124;2023-03-14T03:45:56;7.10;;;3.70;;
33347;SDS011;19707;51.158;17.124;2023-03-14T03:48:59;6.50;;;3.90;;
33347;SDS011;19707;51.158;17.124;2023-03-14T03:52:02;10.70;;;4.20;;
33347;SDS011;19707;51.158;17.124;2023-03-14T03:55:06;7.70;;;4.30;;
33347;SDS011;19707;51.158;17.124;2023-03-14T03:58:10;9.10;;;4.20;;
33347;SDS011;19707;51.158;17.124;2023-03-14T04:01:12;5.20;;;3.70;;
33347;SDS011;19707;51.158;17.124;2023-03-14T04:04:15;5.50;;;3.90;;
33347;SDS011;19707;51.158;17.124;2023-03-14T04:07:31;8.50;;;3.50;;
33347;SDS011;19707;51.158;17.124;2023-03-14T04:10:35;8.20;;;4.20;;
33347;SDS011;19707;51.158;17.124;2023-03-14T04:13:53;7.00;;;4.00;;
33347;SDS011;19707;51.158;17.124;2023-03-14T04:16:56;7.70;;;4.50;;
33347;SDS011;19707;51.158;17.124;2023-03-14T04:19:59;5.10;;;4.00;;
33347;SDS011;19707;51.158;17.124;2023-03-14T04:23:01;10.60;;;4.50;;
33347;SDS011;19707;51.158;17.124;2023-03-14T04:26:04;8.90;;;3.60;;
33347;SDS011;19707;51.158;17.124;2023-03-14T04:29:08;6.80;;;4.70;;
33347;SDS011;19707;51.158;17.124;2023-03-14T04:32:10;7.10;;;4.00;;
33347;SDS011;19707;51.158;17.124;2023-03-14T04:35:13;9.60;;;4.50;;
33347;SDS011;19707;51.158;17.124;2023-03-14T04:38:16;7.20;;;3.60;;
33347;SDS011;19707;51.158;17.124;2023-03-14T04:41:18;6.00;;;3.20;;
33347;SDS011;19707;51.158;17.124;2023-03-14T04:44:21;5.30;;;3.50;;
33347;SDS011;19707;51.158;17.124;2023-03-14T04:47:24;8.60;;;3.50;;
33347;SDS011;19707;51.158;17.124;2023-03-14T04:50:27;9.40;;;3.60;;
33347;SDS011;19707;51.158;17.124;2023-03-14T04:53:30;7.10;;;3.90;;
33347;SDS011;19707;51.158;17.124;2023-03-14T04:56:32;7.00;;;3.40;;
33347;SDS011;19707;51.158;17.124;2023-03-14T04:59:35;9.70;;;3.70;;
33347;SDS011;19707;51.158;17.124;2023-03-14T05:02:38;4.30;;;3.00;;
33347;SDS011;19707;51.158;17.124;2023-03-14T05:05:41;6.10;;;3.70;;
33347;SDS011;19707;51.158;17.124;2023-03-14T05:08:44;13.20;;;4.40;;
33347;SDS011;19707;51.158;17.124;2023-03-14T05:11:46;5.70;;;4.10;;
33347;SDS011;19707;51.158;17.124;2023-03-14T05:14:49;6.90;;;3.90;;
33347;SDS011;19707;51.158;17.124;2023-03-14T05:17:53;6.40;;;3.50;;
33347;SDS011;19707;51.158;17.124;2023-03-14T05:20:56;8.50;;;3.70;;
33347;SDS011;19707;51.158;17.124;2023-03-14T05:23:59;5.80;;;3.40;;
33347;SDS011;19707;51.158;17.124;2023-03-14T05:27:02;6.50;;;3.40;;
33347;SDS011;19707;51.158;17.124;2023-03-14T05:30:06;8.60;;;4.00;;
33347;SDS011;19707;51.158;17.124;2023-03-14T05:33:09;6.60;;;4.20;;
33347;SDS011;19707;51.158;17.124;2023-03-14T05:36:12;10.60;;;4.20;;
33347;SDS011;19707;51.158;17.124;2023-03-14T05:39:15;7.10;;;4.40;;
33347;SDS011;19707;51.158;17.124;2023-03-14T05:42:17;7.20;;;4.20;;
33347;SDS011;19707;51.158;17.124;2023-03-14T05:45:20;5.60;;;4.30;;
33347;SDS011;19707;51.158;17.124;2023-03-14T05:48:23;8.30;;;4.90;;
33347;SDS011;19707;51.158;17.124;2023-03-14T05:51:25;7.50;;;4.30;;
33347;SDS011;19707;51.158;17.124;2023-03-14T05:54:28;7.00;;;4.50;;
33347;SDS011;19707;51.158;17.124;2023-03-14T05:57:31;10.40;;;4.70;;
33347;SDS011;19707;51.158;17.124;2023-03-14T06:00:34;10.60;;;5.60;;
33347;SDS011;19707;51.158;17.124;2023-03-14T06:03:37;9.80;;;4.80;;
33347;SDS011;19707;51.158;17.124;2023-03-14T06:06:39;7.10;;;4.90;;
33347;SDS011;19707;51.158;17.124;2023-03-14T06:09:42;8.90;;;4.80;;
33347;SDS011;19707;51.158;17.124;2023-03-14T06:12:45;13.10;;;5.00;;
33347;SDS011;19707;51.158;17.124;2023-03-14T06:15:48;6.80;;;4.70;;
33347;SDS011;19707;51.158;17.124;2023-03-14T06:18:51;6.40;;;4.40;;
33347;SDS011;19707;51.158;17.124;2023-03-14T06:21:54;16.00;;;5.10;;
33347;SDS011;19707;51.158;17.124;2023-03-14T06:24:57;12.70;;;5.00;;
33347;SDS011;19707;51.158;17.124;2023-03-14T06:28:00;11.10;;;6.40;;
33347;SDS011;19707;51.158;17.124;2023-03-14T06:31:04;9.30;;;5.40;;
33347;SDS011;19707;51.158;17.124;2023-03-14T06:34:08;9.50;;;5.70;;
33347;SDS011;19707;51.158;17.124;2023-03-14T06:37:12;11.60;;;6.20;;
33347;SDS011;19707;51.158;17.124;2023-03-14T06:40:15;12.10;;;7.30;;
33347;SDS011;19707;51.158;17.124;2023-03-14T06:43:20;10.30;;;6.70;;
33347;SDS011;19707;51.158;17.124;2023-03-14T06:46:23;11.40;;;6.10;;
33347;SDS011;19707;51.158;17.124;2023-03-14T06:49:26;14.30;;;6.40;;
33347;SDS011;19707;51.158;17.124;2023-03-14T06:52:29;12.60;;;6.30;;
33347;SDS011;19707;51.158;17.124;2023-03-14T06:55:31;11.00;;;6.20;;
33347;SDS011;19707;51.158;17.124;2023-03-14T06:58:34;10.50;;;6.70;;
33347;SDS011;19707;51.158;17.124;2023-03-14T07:01:37;11.70;;;6.80;;
33347;SDS011;19707;51.158;17.124;2023-03-14T07:04:40;15.10;;;7.60;;
33347;SDS011;19707;51.158;17.124;2023-03-14T07:07:43;15.30;;;7.00;;
33347;SDS011;19707;51.158;17.124;2023-03-14T07:10:47;11.30;;;6.70;;
33347;SDS011;19707;51.158;17.124;2023-03-14T07:13:50;14.70;;;6.40;;
33347;SDS011;19707;51.158;17.124;2023-03-14T07:16:53;14.00;;;6.80;;
33347;SDS011;19707;51.158;17.124;2023-03-14T07:19:56;13.90;;;6.80;;
33347;SDS011;19707;51.158;17.124;2023-03-14T07:22:58;17.40;;;8.00;;
33347;SDS011;19707;51.158;17.124;2023-03-14T07:26:05;12.20;;;6.50;;
33347;SDS011;19707;51.158;17.124;2023-03-14T07:29:09;14.00;;;7.40;;
33347;SDS011;19707;51.158;17.124;2023-03-14T07:32:12;8.40;;;5.40;;
33347;SDS011;19707;51.158;17.124;2023-03-14T07:38:20;8.30;;;5.00;;
33347;SDS011;19707;51.158;17.124;2023-03-14T07:41:24;9.40;;;5.30;;
33347;SDS011;19707;51.158;17.124;2023-03-14T07:44:26;7.00;;;4.60;;
33347;SDS011;19707;51.158;17.124;2023-03-14T07:47:29;10.50;;;5.40;;
33347;SDS011;19707;51.158;17.124;2023-03-14T07:50:32;8.40;;;4.80;;
33347;SDS011;19707;51.158;17.124;2023-03-14T07:53:35;10.10;;;4.80;;
33347;SDS011;19707;51.158;17.124;2023-03-14T07:56:38;8.40;;;4.40;;
33347;SDS011;19707;51.158;17.124;2023-03-14T07:59:41;11.00;;;5.30;;
33347;SDS011;19707;51.158;17.124;2023-03-14T08:02:44;9.60;;;5.00;;
33347;SDS011;19707;51.158;17.124;2023-03-14T08:05:48;9.40;;;4.70;;
33347;SDS011;19707;51.158;17.124;2023-03-14T08:08:52;7.90;;;5.20;;
33347;SDS011;19707;51.158;17.124;2023-03-14T08:11:55;9.00;;;5.20;;
33347;SDS011;19707;51.158;17.124;2023-03-14T08:14:58;12.20;;;5.70;;
33347;SDS011;19707;51.158;17.124;2023-03-14T08:18:02;11.10;;;5.30;;
33347;SDS011;19707;51.158;17.124;2023-03-14T08:21:06;9.60;;;6.00;;
33347;SDS011;19707;51.158;17.124;2023-03-14T08:24:09;9.90;;;5.80;;
33347;SDS011;19707;51.158;17.124;2023-03-14T08:27:12;11.20;;;5.30;;
33347;SDS011;19707;51.158;17.124;2023-03-14T08:30:17;12.80;;;5.80;;
33347;SDS011;19707;51.158;17.124;2023-03-14T08:33:21;11.40;;;6.60;;
33347;SDS011;19707;51.158;17.124;2023-03-14T08:36:24;13.00;;;6.60;;
33347;SDS011;19707;51.158;17.124;2023-03-14T08:39:27;17.20;;;7.10;;
33347;SDS011;19707;51.158;17.124;2023-03-14T08:42:32;14.10;;;7.90;;
33347;SDS011;19707;51.158;17.124;2023-03-14T08:45:36;13.80;;;7.80;;
33347;SDS011;19707;51.158;17.124;2023-03-14T08:48:39;12.70;;;6.10;;
33347;SDS011;19707;51.158;17.124;2023-03-14T08:51:43;12.50;;;6.70;;
33347;SDS011;19707;51.158;17.124;2023-03-14T08:54:47;11.30;;;6.40;;
33347;SDS011;19707;51.158;17.124;2023-03-14T08:57:50;16.50;;;6.90;;
33347;SDS011;19707;51.158;17.124;2023-03-14T09:00:53;10.40;;;6.00;;
33347;SDS011;19707;51.158;17.124;2023-03-14T09:03:56;9.70;;;5.80;;
33347;SDS011;19707;51.158;17.124;2023-03-14T09:06:59;11.80;;;6.20;;
33347;SDS011;19707;51.158;17.124;2023-03-14T09:10:02;10.30;;;6.00;;
33347;SDS011;19707;51.158;17.124;2023-03-14T09:13:06;10.90;;;5.80;;
33347;SDS011;19707;51.158;17.124;2023-03-14T09:16:09;12.20;;;6.60;;
33347;SDS011;19707;51.158;17.124;2023-03-14T09:19:12;10.50;;;6.30;;
33347;SDS011;19707;51.158;17.124;2023-03-14T09:22:16;11.50;;;6.10;;
33347;SDS011;19707;51.158;17.124;2023-03-14T09:25:18;10.60;;;5.40;;
33347;SDS011;19707;51.158;17.124;2023-03-14T09:28:21;12.20;;;6.20;;
33347;SDS011;19707;51.158;17.124;2023-03-14T09:31:25;10.50;;;5.70;;
33347;SDS011;19707;51.158;17.124;2023-03-14T09:34:28;9.90;;;5.70;;
33347;SDS011;19707;51.158;17.124;2023-03-14T09:37:32;10.80;;;6.10;;
33347;SDS011;19707;51.158;17.124;2023-03-14T09:40:35;9.00;;;5.90;;
33347;SDS011;19707;51.158;17.124;2023-03-14T09:43:39;9.10;;;5.70;;
33347;SDS011;19707;51.158;17.124;2023-03-14T09:46:44;9.20;;;5.30;;
33347;SDS011;19707;51.158;17.124;2023-03-14T09:49:50;9.40;;;5.30;;
33347;SDS011;19707;51.158;17.124;2023-03-14T09:52:56;7.10;;;5.20;;
33347;SDS011;19707;51.158;17.124;2023-03-14T09:56:01;10.60;;;5.10;;
33347;SDS011;19707;51.158;17.124;2023-03-14T09:59:04;13.90;;;6.70;;
33347;SDS011;19707;51.158;17.124;2023-03-14T10:02:28;7.70;;;5.10;;
33347;SDS011;19707;51.158;17.124;2023-03-14T10:05:36;8.80;;;5.30;;
33347;SDS011;19707;51.158;17.124;2023-03-14T10:08:43;7.50;;;5.10;;
33347;SDS011;19707;51.158;17.124;2023-03-14T10:11:46;10.70;;;5.20;;
33347;SDS011;19707;51.158;17.124;2023-03-14T10:14:50;9.40;;;4.80;;
33347;SDS011;19707;51.158;17.124;2023-03-14T10:17:58;7.80;;;5.10;;
33347;SDS011;19707;51.158;17.124;2023-03-14T10:24:30;10.60;;;5.30;;
33347;SDS011;19707;51.158;17.124;2023-03-14T10:27:36;9.70;;;5.90;;
33347;SDS011;19707;51.158;17.124;2023-03-14T10:30:41;10.70;;;6.30;;
33347;SDS011;19707;51.158;17.124;2023-03-14T10:34:22;10.50;;;6.00;;
33347;SDS011;19707;51.158;17.124;2023-03-14T10:37:24;10.60;;;5.30;;
33347;SDS011;19707;51.158;17.124;2023-03-14T10:40:34;12.50;;;6.40;;
33347;SDS011;19707;51.158;17.124;2023-03-14T10:43:42;10.20;;;6.00;;
33347;SDS011;19707;51.158;17.124;2023-03-14T10:46:46;13.70;;;6.30;;
33347;SDS011;19707;51.158;17.124;2023-03-14T10:50:21;12.20;;;6.80;;
33347;SDS011;19707;51.158;17.124;2023-03-14T10:53:32;11.80;;;6.60;;
33347;SDS011;19707;51.158;17.124;2023-03-14T10:56:47;18.40;;;6.50;;
33347;SDS011;19707;51.158;17.124;2023-03-14T11:00:02;11.30;;;5.90;;
33347;SDS011;19707;51.158;17.124;2023-03-14T11:03:11;12.10;;;7.40;;
33347;SDS011;19707;51.158;17.124;2023-03-14T11:06:19;15.10;;;7.00;;
33347;SDS011;19707;51.158;17.124;2023-03-14T11:09:35;10.90;;;6.90;;
33347;SDS011;19707;51.158;17.124;2023-03-14T11:19:36;10.50;;;6.30;;
33347;SDS011;19707;51.158;17.124;2023-03-14T11:22:50;11.70;;;6.00;;
33347;SDS011;19707;51.158;17.124;2023-03-14T11:26:33;10.70;;;5.90;;
33347;SDS011;19707;51.158;17.124;2023-03-14T11:30:18;13.30;;;6.10;;
33347;SDS011;19707;51.158;17.124;2023-03-14T11:36:41;11.50;;;5.00;;
33347;SDS011;19707;51.158;17.124;2023-03-14T11:39:51;7.90;;;4.10;;
33347;SDS011;19707;51.158;17.124;2023-03-14T11:46:21;11.50;;;4.50;;
33347;SDS011;19707;51.158;17.124;2023-03-14T11:49:35;8.80;;;4.60;;
33347;SDS011;19707;51.158;17.124;2023-03-14T11:52:58;9.50;;;5.50;;
33347;SDS011;19707;51.158;17.124;2023-03-14T11:56:20;10.40;;;5.10;;
33347;SDS011;19707;51.158;17.124;2023-03-14T11:59:29;10.50;;;4.50;;
33347;SDS011;19707;51.158;17.124;2023-03-14T12:09:18;9.20;;;3.50;;
33347;SDS011;19707;51.158;17.124;2023-03-14T12:12:23;5.30;;;3.20;;
33347;SDS011;19707;51.158;17.124;2023-03-14T12:15:28;6.90;;;4.00;;
33347;SDS011;19707;51.158;17.124;2023-03-14T12:18:38;7.90;;;4.80;;
33347;SDS011;19707;51.158;17.124;2023-03-14T12:21:47;7.80;;;4.40;;
33347;SDS011;19707;51.158;17.124;2023-03-14T12:24:56;10.30;;;4.60;;
33347;SDS011;19707;51.158;17.124;2023-03-14T12:28:03;5.70;;;4.10;;
33347;SDS011;19707;51.158;17.124;2023-03-14T12:34:33;11.60;;;5.00;;
33347;SDS011;19707;51.158;17.124;2023-03-14T12:37:37;6.80;;;3.50;;
33347;SDS011;19707;51.158;17.124;2023-03-14T12:50:46;8.20;;;4.90;;
33347;SDS011;19707;51.158;17.124;2023-03-14T12:54:15;7.80;;;4.10;;
33347;SDS011;19707;51.158;17.124;2023-03-14T13:01:03;6.50;;;4.80;;
33347;SDS011;19707;51.158;17.124;2023-03-14T13:04:09;10.30;;;5.70;;
33347;SDS011;19707;51.158;17.124;2023-03-14T13:07:35;7.70;;;5.00;;
33347;SDS011;19707;51.158;17.124;2023-03-14T13:10:41;9.60;;;4.40;;
33347;SDS011;19707;51.158;17.124;2023-03-14T13:13:51;6.60;;;4.40;;
33347;SDS011;19707;51.158;17.124;2023-03-14T13:17:01;7.00;;;5.20;;
33347;SDS011;19707;51.158;17.124;2023-03-14T13:20:09;7.10;;;4.50;;
33347;SDS011;19707;51.158;17.124;2023-03-14T13:23:34;12.80;;;4.90;;
33347;SDS011;19707;51.158;17.124;2023-03-14T13:26:42;9.80;;;5.20;;
33347;SDS011;19707;51.158;17.124;2023-03-14T13:29:48;9.00;;;4.60;;
33347;SDS011;19707;51.158;17.124;2023-03-14T13:32:52;8.10;;;4.50;;
33347;SDS011;19707;51.158;17.124;2023-03-14T13:36:00;9.30;;;4.60;;
33347;SDS011;19707;51.158;17.124;2023-03-14T13:39:27;9.10;;;4.50;;
33347;SDS011;19707;51.158;17.124;2023-03-14T13:42:31;9.10;;;4.30;;
33347;SDS011;19707;51.158;17.124;2023-03-14T13:45:48;6.60;;;4.40;;
33347;SDS011;19707;51.158;17.124;2023-03-14T13:48:57;9.70;;;4.10;;
33347;SDS011;19707;51.158;17.124;2023-03-14T13:52:01;7.70;;;4.50;;
33347;SDS011;19707;51.158;17.124;2023-03-14T13:55:13;7.30;;;4.70;;
33347;SDS011;19707;51.158;17.124;2023-03-14T13:58:27;9.50;;;5.20;;
33347;SDS011;19707;51.158;17.124;2023-03-14T14:01:32;6.10;;;4.00;;
33347;SDS011;19707;51.158;17.124;2023-03-14T14:04:37;6.70;;;3.60;;
33347;SDS011;19707;51.158;17.124;2023-03-14T14:07:40;8.00;;;4.00;;
33347;SDS011;19707;51.158;17.124;2023-03-14T14:10:46;9.50;;;4.40;;
33347;SDS011;19707;51.158;17.124;2023-03-14T14:13:51;9.10;;;4.00;;
33347;SDS011;19707;51.158;17.124;2023-03-14T14:16:54;7.00;;;4.90;;
33347;SDS011;19707;51.158;17.124;2023-03-14T14:20:01;7.60;;;4.40;;
33347;SDS011;19707;51.158;17.124;2023-03-14T14:23:09;11.00;;;4.40;;
33347;SDS011;19707;51.158;17.124;2023-03-14T14:26:18;6.50;;;4.10;;
33347;SDS011;19707;51.158;17.124;2023-03-14T14:32:41;8.90;;;4.70;;
33347;SDS011;19707;51.158;17.124;2023-03-14T14:35:49;6.10;;;4.40;;
33347;SDS011;19707;51.158;17.124;2023-03-14T14:42:20;9.50;;;5.20;;
33347;SDS011;19707;51.158;17.124;2023-03-14T14:45:33;7.90;;;5.70;;
33347;SDS011;19707;51.158;17.124;2023-03-14T14:48:37;8.80;;;5.10;;
33347;SDS011;19707;51.158;17.124;2023-03-14T14:51:45;8.20;;;5.00;;
33347;SDS011;19707;51.158;17.124;2023-03-14T14:54:52;8.80;;;5.50;;
33347;SDS011;19707;51.158;17.124;2023-03-14T14:58:11;7.50;;;5.10;;
33347;SDS011;19707;51.158;17.124;2023-03-14T15:01:20;11.00;;;4.90;;
33347;SDS011;19707;51.158;17.124;2023-03-14T15:04:26;10.00;;;5.60;;
33347;SDS011;19707;51.158;17.124;2023-03-14T15:07:30;9.90;;;5.50;;
33347;SDS011;19707;51.158;17.124;2023-03-14T15:10:33;11.00;;;6.60;;
33347;SDS011;19707;51.158;17.124;2023-03-14T15:13:36;14.60;;;6.50;;
33347;SDS011;19707;51.158;17.124;2023-03-14T15:16:39;8.60;;;5.50;;
33347;SDS011;19707;51.158;17.124;2023-03-14T15:19:44;10.40;;;5.30;;
33347;SDS011;19707;51.158;17.124;2023-03-14T15:22:47;9.50;;;5.60;;
33347;SDS011;19707;51.158;17.124;2023-03-14T15:25:52;12.50;;;5.70;;
33347;SDS011;19707;51.158;17.124;2023-03-14T15:28:56;13.20;;;6.10;;
33347;SDS011;19707;51.158;17.124;2023-03-14T15:32:00;11.50;;;6.00;;
33347;SDS011;19707;51.158;17.124;2023-03-14T15:35:03;13.20;;;6.60;;
33347;SDS011;19707;51.158;17.124;2023-03-14T15:38:14;11.50;;;6.90;;
33347;SDS011;19707;51.158;17.124;2023-03-14T15:41:18;9.30;;;6.00;;
33347;SDS011;19707;51.158;17.124;2023-03-14T15:44:23;8.30;;;5.80;;
33347;SDS011;19707;51.158;17.124;2023-03-14T15:47:26;13.80;;;7.90;;
33347;SDS011;19707;51.158;17.124;2023-03-14T15:50:30;15.10;;;8.70;;
33347;SDS011;19707;51.158;17.124;2023-03-14T15:53:34;14.30;;;7.70;;
33347;SDS011;19707;51.158;17.124;2023-03-14T15:59:42;10.50;;;6.10;;
33347;SDS011;19707;51.158;17.124;2023-03-14T16:02:45;16.30;;;8.60;;
33347;SDS011;19707;51.158;17.124;2023-03-14T16:05:47;15.80;;;7.60;;
33347;SDS011;19707;51.158;17.124;2023-03-14T16:08:50;10.60;;;5.50;;
33347;SDS011;19707;51.158;17.124;2023-03-14T16:11:53;9.60;;;6.40;;
33347;SDS011;19707;51.158;17.124;2023-03-14T16:14:56;12.50;;;5.30;;
33347;SDS011;19707;51.158;17.124;2023-03-14T16:18:00;12.90;;;5.80;;
33347;SDS011;19707;51.158;17.124;2023-03-14T16:21:04;10.50;;;6.10;;
33347;SDS011;19707;51.158;17.124;2023-03-14T16:24:09;11.80;;;6.00;;
33347;SDS011;19707;51.158;17.124;2023-03-14T16:27:13;9.10;;;5.20;;
33347;SDS011;19707;51.158;17.124;2023-03-14T16:30:18;7.90;;;4.80;;
33347;SDS011;19707;51.158;17.124;2023-03-14T16:33:22;7.80;;;4.20;;
33347;SDS011;19707;51.158;17.124;2023-03-14T16:36:25;7.10;;;4.30;;
33347;SDS011;19707;51.158;17.124;2023-03-14T16:39:29;10.70;;;4.00;;
33347;SDS011;19707;51.158;17.124;2023-03-14T16:42:34;7.00;;;4.60;;
33347;SDS011;19707;51.158;17.124;2023-03-14T16:45:37;6.70;;;3.90;;
33347;SDS011;19707;51.158;17.124;2023-03-14T16:48:40;6.90;;;4.20;;
33347;SDS011;19707;51.158;17.124;2023-03-14T16:51:44;7.30;;;4.00;;
33347;SDS011;19707;51.158;17.124;2023-03-14T16:54:47;14.20;;;8.90;;
33347;SDS011;19707;51.158;17.124;2023-03-14T16:57:50;19.80;;;12.40;;
33347;SDS011;19707;51.158;17.124;2023-03-14T17:00:53;23.10;;;15.80;;
33347;SDS011;19707;51.158;17.124;2023-03-14T17:03:59;16.10;;;9.00;;
33347;SDS011;19707;51.158;17.124;2023-03-14T17:07:03;7.40;;;5.30;;
33347;SDS011;19707;51.158;17.124;2023-03-14T17:10:06;11.00;;;6.80;;
33347;SDS011;19707;51.158;17.124;2023-03-14T17:13:10;16.10;;;8.80;;
33347;SDS011;19707;51.158;17.124;2023-03-14T17:16:14;19.40;;;10.50;;
33347;SDS011;19707;51.158;17.124;2023-03-14T17:19:18;18.30;;;8.60;;
33347;SDS011;19707;51.158;17.124;2023-03-14T17:22:22;18.50;;;10.20;;
33347;SDS011;19707;51.158;17.124;2023-03-14T17:25:25;17.40;;;10.70;;
33347;SDS011;19707;51.158;17.124;2023-03-14T17:28:30;16.70;;;11.90;;
33347;SDS011;19707;51.158;17.124;2023-03-14T17:31:35;13.40;;;9.40;;
33347;SDS011;19707;51.158;17.124;2023-03-14T17:34:38;13.00;;;8.60;;
33347;SDS011;19707;51.158;17.124;2023-03-14T17:37:42;15.30;;;8.10;;
33347;SDS011;19707;51.158;17.124;2023-03-14T17:40:47;17.80;;;8.90;;
33347;SDS011;19707;51.158;17.124;2023-03-14T17:43:51;20.10;;;12.40;;
33347;SDS011;19707;51.158;17.124;2023-03-14T17:46:54;18.40;;;14.70;;
33347;SDS011;19707;51.158;17.124;2023-03-14T17:50:01;13.00;;;8.00;;
33347;SDS011;19707;51.158;17.124;2023-03-14T17:53:06;11.80;;;7.80;;
33347;SDS011;19707;51.158;17.124;2023-03-14T17:56:09;12.90;;;7.70;;
33347;SDS011;19707;51.158;17.124;2023-03-14T17:59:15;14.60;;;7.50;;
33347;SDS011;19707;51.158;17.124;2023-03-14T18:02:20;15.80;;;10.80;;
33347;SDS011;19707;51.158;17.124;2023-03-14T18:05:24;15.50;;;9.10;;
33347;SDS011;19707;51.158;17.124;2023-03-14T18:08:27;17.00;;;10.00;;
33347;SDS011;19707;51.158;17.124;2023-03-14T18:11:30;19.50;;;11.10;;
33347;SDS011;19707;51.158;17.124;2023-03-14T18:14:34;38.30;;;22.10;;
33347;SDS011;19707;51.158;17.124;2023-03-14T18:17:37;52.40;;;28.80;;
33347;SDS011;19707;51.158;17.124;2023-03-14T18:20:40;57.30;;;28.70;;
33347;SDS011;19707;51.158;17.124;2023-03-14T18:23:43;72.80;;;40.30;;
33347;SDS011;19707;51.158;17.124;2023-03-14T18:26:47;35.20;;;21.90;;
33347;SDS011;19707;51.158;17.124;2023-03-14T18:29:50;29.60;;;16.20;;
33347;SDS011;19707;51.158;17.124;2023-03-14T18:32:52;19.30;;;12.20;;
33347;SDS011;19707;51.158;17.124;2023-03-14T18:35:55;25.10;;;13.20;;
33347;SDS011;19707;51.158;17.124;2023-03-14T18:38:59;19.50;;;13.10;;
33347;SDS011;19707;51.158;17.124;2023-03-14T18:42:07;21.30;;;12.90;;
33347;SDS011;19707;51.158;17.124;2023-03-14T18:45:10;25.20;;;14.90;;
33347;SDS011;19707;51.158;17.124;2023-03-14T18:48:14;25.60;;;13.70;;
33347;SDS011;19707;51.158;17.124;2023-03-14T18:51:27;21.90;;;11.90;;
33347;SDS011;19707;51.158;17.124;2023-03-14T18:54:37;19.20;;;12.30;;
33347;SDS011;19707;51.158;17.124;2023-03-14T18:57:49;22.60;;;13.60;;
33347;SDS011;19707;51.158;17.124;2023-03-14T19:01:03;21.20;;;13.70;;
33347;SDS011;19707;51.158;17.124;2023-03-14T19:07:10;23.80;;;17.40;;
33347;SDS011;19707;51.158;17.124;2023-03-14T19:10:15;18.50;;;13.10;;
33347;SDS011;19707;51.158;17.124;2023-03-14T19:13:22;18.30;;;11.60;;
33347;SDS011;19707;51.158;17.124;2023-03-14T19:16:25;17.70;;;10.30;;